Time;durP1;ratioP1;P1;durP2;ratioP2;P2;SDS_P1;SDS_P2;PMS_P1;PMS_P2;Temp;Humidity;BMP_temperature;BMP_pressure;BME280_temperature;BME280_humidity;BME280_pressure;Samples;Min_cycle;Max_cycle;Signal;HPM_P1;HPM_P2
2021/09/05 00:01:05;;;;;;;7.10;4.50;;;12.70;99.90;;;;;;5021298;28;20210;-67
2021/09/05 00:03:32;;;;;;;5.77;4.00;;;12.80;99.90;;;;;;5019354;28;20218;-66
2021/09/05 00:05:58;;;;;;;5.93;4.47;;;12.70;99.90;;;;;;5032272;28;20233;-66
2021/09/05 00:08:25;;;;;;;6.63;4.47;;;12.70;99.90;;;;;;5022615;28;20207;-67
2021/09/05 00:10:52;;;;;;;5.60;4.20;;;12.60;99.90;;;;;;5022405;28;20211;-67
2021/09/05 00:13:20;;;;;;;5.17;3.87;;;12.60;99.90;;;;;;5024627;28;20215;-67
2021/09/05 00:15:47;;;;;;;5.73;4.17;;;12.60;99.90;;;;;;5020344;28;20218;-66
2021/09/05 00:18:14;;;;;;;6.50;4.50;;;12.60;99.90;;;;;;5018445;28;20219;-66
2021/09/05 00:20:41;;;;;;;6.07;3.83;;;12.60;99.90;;;;;;5023402;28;20206;-66
2021/09/05 00:23:09;;;;;;;5.60;4.20;;;12.60;99.90;;;;;;5021297;28;20545;-67
2021/09/05 00:25:36;;;;;;;7.00;4.00;;;12.60;99.90;;;;;;5022019;28;20216;-66
2021/09/05 00:28:03;;;;;;;6.33;4.57;;;12.50;99.90;;;;;;5030106;28;20204;-66
2021/09/05 00:30:31;;;;;;;6.17;4.50;;;12.50;99.90;;;;;;5041148;28;20559;-67
2021/09/05 00:32:59;;;;;;;8.53;4.60;;;12.50;99.90;;;;;;5016817;28;20211;-66
2021/09/05 00:35:26;;;;;;;10.53;4.93;;;12.50;99.90;;;;;;5022216;28;20221;-67
2021/09/05 00:37:52;;;;;;;7.23;4.07;;;12.50;99.90;;;;;;5021996;28;20297;-67
2021/09/05 00:40:19;;;;;;;7.67;4.50;;;12.40;99.90;;;;;;5022898;28;20206;-66
2021/09/05 00:42:46;;;;;;;8.40;4.30;;;12.40;99.90;;;;;;5029929;28;20210;-67
2021/09/05 00:45:13;;;;;;;7.30;4.50;;;12.40;99.90;;;;;;5024867;28;20238;-66
2021/09/05 00:47:41;;;;;;;7.90;4.37;;;12.40;99.90;;;;;;5029908;28;20207;-67
2021/09/05 00:50:10;;;;;;;5.87;4.20;;;12.40;99.90;;;;;;5029624;28;20208;-67
2021/09/05 00:52:37;;;;;;;6.10;4.67;;;12.30;99.90;;;;;;5026140;28;20568;-67
2021/09/05 00:55:05;;;;;;;5.90;4.57;;;12.30;99.90;;;;;;5027180;28;20218;-67
2021/09/05 00:57:32;;;;;;;5.80;4.20;;;12.30;99.90;;;;;;5022115;28;20207;-67
2021/09/05 01:00:00;;;;;;;7.67;4.27;;;12.30;99.90;;;;;;5024829;28;20297;-66
2021/09/05 01:02:27;;;;;;;7.67;4.13;;;12.30;99.90;;;;;;5015690;28;20650;-67
2021/09/05 01:04:55;;;;;;;6.10;4.73;;;12.30;99.90;;;;;;5013315;28;20238;-67
2021/09/05 01:07:23;;;;;;;6.63;4.20;;;12.30;99.90;;;;;;5018248;28;20222;-67
2021/09/05 01:09:50;;;;;;;6.30;4.17;;;12.30;99.90;;;;;;5033172;28;20207;-67
2021/09/05 01:12:17;;;;;;;6.07;4.33;;;12.30;99.90;;;;;;5027440;28;20210;-67
2021/09/05 01:14:44;;;;;;;7.57;4.37;;;12.20;99.90;;;;;;5030853;28;20213;-66
2021/09/05 01:17:12;;;;;;;6.23;3.90;;;12.20;99.90;;;;;;5025331;28;20206;-67
2021/09/05 01:19:39;;;;;;;6.10;4.50;;;12.20;99.90;;;;;;5027394;28;20265;-67
2021/09/05 01:22:07;;;;;;;24.67;4.23;;;12.20;99.90;;;;;;5032614;28;20215;-66
2021/09/05 01:24:34;;;;;;;7.53;4.00;;;12.20;99.90;;;;;;5022685;28;20227;-66
2021/09/05 01:27:02;;;;;;;5.07;4.03;;;12.20;99.90;;;;;;5027083;28;20226;-67
2021/09/05 01:29:29;;;;;;;6.30;3.93;;;12.20;99.90;;;;;;5029315;28;20214;-66
2021/09/05 01:31:56;;;;;;;5.33;3.53;;;12.20;99.90;;;;;;5033998;28;20223;-66
2021/09/05 01:34:25;;;;;;;6.90;4.17;;;12.20;99.90;;;;;;5033015;28;20222;-67
2021/09/05 01:36:53;;;;;;;6.50;3.90;;;12.10;99.90;;;;;;5028806;28;20226;-66
2021/09/05 01:39:22;;;;;;;5.70;4.13;;;12.10;99.90;;;;;;5033055;28;20659;-66
2021/09/05 01:41:49;;;;;;;8.13;4.20;;;12.10;99.90;;;;;;5026061;28;20238;-66
2021/09/05 01:44:20;;;;;;;5.60;3.73;;;12.00;99.90;;;;;;5027483;28;20668;-66
2021/09/05 01:46:47;;;;;;;5.67;3.80;;;12.00;99.90;;;;;;5027185;28;20203;-66
2021/09/05 01:49:14;;;;;;;4.90;3.67;;;12.00;99.90;;;;;;5032212;28;20206;-66
2021/09/05 01:51:41;;;;;;;5.60;3.80;;;12.10;99.90;;;;;;5030568;28;20210;-66
2021/09/05 01:54:08;;;;;;;3.90;3.40;;;12.00;99.90;;;;;;5012879;28;20215;-66
2021/09/05 01:56:36;;;;;;;5.50;3.50;;;12.00;99.90;;;;;;5019391;28;20211;-65
2021/09/05 01:59:05;;;;;;;5.57;3.33;;;12.00;99.90;;;;;;5026371;28;20227;-66
2021/09/05 02:01:33;;;;;;;5.97;3.90;;;11.90;99.90;;;;;;5028963;28;20230;-66
2021/09/05 02:04:02;;;;;;;10.30;4.00;;;11.90;99.90;;;;;;5018978;28;20679;-66
2021/09/05 02:06:29;;;;;;;4.73;3.30;;;11.90;99.90;;;;;;5026135;28;20701;-66
2021/09/05 02:08:56;;;;;;;5.80;3.73;;;11.90;99.90;;;;;;5028222;28;20214;-67
2021/09/05 02:11:23;;;;;;;6.67;3.90;;;11.90;99.90;;;;;;5021049;28;20210;-66
2021/09/05 02:13:51;;;;;;;5.73;3.30;;;11.90;99.90;;;;;;5019730;28;20653;-66
2021/09/05 02:16:18;;;;;;;5.63;3.73;;;11.90;99.90;;;;;;5019169;28;20210;-66
2021/09/05 02:18:47;;;;;;;5.47;3.40;;;11.80;99.90;;;;;;5019440;28;20230;-66
2021/09/05 02:21:14;;;;;;;5.50;3.87;;;11.80;99.90;;;;;;5013473;28;20604;-66
2021/09/05 02:23:41;;;;;;;4.40;3.60;;;11.80;99.90;;;;;;5012608;28;20256;-66
2021/09/05 02:26:07;;;;;;;4.23;3.13;;;11.80;99.90;;;;;;5027435;28;20686;-66
2021/09/05 02:28:34;;;;;;;5.23;2.80;;;11.80;99.90;;;;;;5020290;28;20203;-67
2021/09/05 02:31:01;;;;;;;4.63;3.33;;;11.80;99.90;;;;;;5025287;28;20210;-66
2021/09/05 02:33:28;;;;;;;4.63;3.40;;;11.70;99.90;;;;;;5031072;28;20198;-67
2021/09/05 02:35:56;;;;;;;4.83;3.37;;;11.70;99.90;;;;;;5026399;28;20219;-66
2021/09/05 02:38:23;;;;;;;5.30;3.30;;;11.70;99.90;;;;;;5026808;28;20593;-65
2021/09/05 02:40:50;;;;;;;3.73;3.33;;;11.70;99.90;;;;;;5031416;28;20248;-66
2021/09/05 02:43:17;;;;;;;4.67;2.90;;;11.70;99.90;;;;;;5031733;28;20206;-66
2021/09/05 02:45:43;;;;;;;4.43;3.20;;;11.70;99.90;;;;;;5024032;28;20229;-66
2021/09/05 02:48:10;;;;;;;4.57;3.20;;;11.70;99.90;;;;;;5029699;28;20456;-66
2021/09/05 02:50:37;;;;;;;4.30;3.10;;;11.60;99.90;;;;;;5031759;28;20207;-66
2021/09/05 02:53:05;;;;;;;4.33;2.87;;;11.60;99.90;;;;;;5030615;28;20203;-67
2021/09/05 02:55:32;;;;;;;6.37;3.23;;;11.60;99.90;;;;;;5025763;28;20226;-67
2021/09/05 02:57:59;;;;;;;5.27;2.87;;;11.60;99.90;;;;;;5019468;28;20218;-67
2021/09/05 03:00:26;;;;;;;5.00;3.17;;;11.60;99.90;;;;;;5028889;28;20210;-66
2021/09/05 03:02:53;;;;;;;5.03;2.97;;;11.60;99.90;;;;;;5024293;28;20211;-67
2021/09/05 03:05:20;;;;;;;5.67;3.27;;;11.60;99.90;;;;;;5018008;28;20663;-66
2021/09/05 03:07:47;;;;;;;4.30;3.00;;;11.60;99.90;;;;;;5015948;28;20209;-66
2021/09/05 03:10:15;;;;;;;5.77;3.30;;;11.60;99.90;;;;;;5030978;28;20215;-67
2021/09/05 03:12:41;;;;;;;4.03;3.00;;;11.60;99.90;;;;;;5017067;28;20207;-66
2021/09/05 03:15:09;;;;;;;4.37;3.27;;;11.60;99.90;;;;;;5017063;28;20203;-67
2021/09/05 03:17:36;;;;;;;3.77;3.13;;;11.60;99.90;;;;;;5021322;28;20437;-66
2021/09/05 03:20:03;;;;;;;4.73;3.63;;;11.60;99.90;;;;;;5011942;28;20203;-66
2021/09/05 03:22:30;;;;;;;5.00;3.33;;;11.50;99.90;;;;;;5011826;28;20223;-66
2021/09/05 03:24:57;;;;;;;6.17;3.97;;;11.50;99.90;;;;;;5018205;28;20629;-66
2021/09/05 03:27:25;;;;;;;4.80;3.40;;;11.50;99.90;;;;;;5013777;28;20599;-66
2021/09/05 03:29:51;;;;;;;4.77;3.70;;;11.50;99.90;;;;;;5013554;28;20210;-66
2021/09/05 03:32:18;;;;;;;8.47;3.83;;;11.50;99.90;;;;;;5015634;28;20226;-66
2021/09/05 03:34:45;;;;;;;5.50;3.40;;;11.40;99.90;;;;;;5030438;28;20237;-66
2021/09/05 03:37:12;;;;;;;6.17;4.10;;;11.40;99.90;;;;;;5022857;28;20224;-66
2021/09/05 03:39:39;;;;;;;8.00;4.60;;;11.40;99.90;;;;;;5018453;28;20687;-67
2021/09/05 03:42:06;;;;;;;5.73;4.20;;;11.30;99.90;;;;;;5020401;28;20246;-66
2021/09/05 03:44:34;;;;;;;7.30;4.50;;;11.30;99.90;;;;;;5021668;28;20218;-66
2021/09/05 03:47:01;;;;;;;5.40;4.27;;;11.30;99.90;;;;;;5025779;28;20264;-66
2021/09/05 03:49:28;;;;;;;5.40;3.97;;;11.20;99.90;;;;;;5026344;28;20214;-66
2021/09/05 03:51:55;;;;;;;4.77;4.03;;;11.20;99.90;;;;;;5025149;28;20202;-66
2021/09/05 03:54:22;;;;;;;6.20;4.60;;;11.20;99.90;;;;;;5032476;28;20203;-66
2021/09/05 03:56:49;;;;;;;6.93;3.87;;;11.20;99.90;;;;;;5034786;28;20218;-67
2021/09/05 03:59:16;;;;;;;5.17;3.77;;;11.20;99.90;;;;;;5024938;28;20521;-67
2021/09/05 04:01:44;;;;;;;5.40;4.40;;;11.20;99.90;;;;;;5026261;28;20207;-67
2021/09/05 04:04:11;;;;;;;4.90;4.00;;;11.20;99.90;;;;;;5033384;28;20578;-68
2021/09/05 04:06:38;;;;;;;6.30;4.70;;;11.30;99.90;;;;;;5028866;28;20227;-67
2021/09/05 04:09:10;;;;;;;6.47;4.50;;;11.30;99.90;;;;;;5024084;28;20206;-67
2021/09/05 04:11:37;;;;;;;7.33;3.73;;;11.20;99.90;;;;;;5034361;28;20298;-67
2021/09/05 04:14:04;;;;;;;6.77;4.40;;;11.20;99.90;;;;;;5034335;28;20583;-67
2021/09/05 04:16:31;;;;;;;4.53;3.57;;;11.20;99.90;;;;;;5033464;28;20213;-67
2021/09/05 04:18:59;;;;;;;6.57;4.10;;;11.20;99.90;;;;;;5031607;28;20203;-68
2021/09/05 04:21:26;;;;;;;7.73;4.10;;;11.20;99.90;;;;;;5029491;28;20210;-67
2021/09/05 04:23:53;;;;;;;4.43;3.93;;;11.20;99.90;;;;;;5031497;28;20206;-68
2021/09/05 04:26:20;;;;;;;6.67;4.20;;;11.30;99.90;;;;;;5033135;28;20238;-66
2021/09/05 04:28:46;;;;;;;6.07;3.97;;;11.20;99.90;;;;;;5024909;28;20202;-68
2021/09/05 04:31:13;;;;;;;6.13;4.03;;;11.20;99.90;;;;;;5021695;28;20225;-67
2021/09/05 04:33:40;;;;;;;5.90;3.90;;;11.20;99.90;;;;;;5032115;28;20570;-68
2021/09/05 04:36:08;;;;;;;6.83;4.80;;;11.20;99.90;;;;;;5021517;28;20230;-67
2021/09/05 04:38:35;;;;;;;6.07;3.33;;;11.20;99.90;;;;;;5032679;28;20198;-66
2021/09/05 04:41:01;;;;;;;6.27;3.70;;;11.20;99.90;;;;;;5029385;28;20732;-67
2021/09/05 04:43:28;;;;;;;6.00;3.87;;;11.20;99.90;;;;;;5031276;28;20663;-67
2021/09/05 04:45:56;;;;;;;6.67;3.90;;;11.30;99.90;;;;;;5028825;28;20601;-68
2021/09/05 04:48:23;;;;;;;7.00;4.60;;;11.40;99.90;;;;;;5021803;28;20217;-67
2021/09/05 04:50:50;;;;;;;6.17;3.87;;;11.40;99.90;;;;;;5026373;28;20213;-66
2021/09/05 04:53:18;;;;;;;5.60;4.03;;;11.50;99.90;;;;;;5027552;28;20211;-67
2021/09/05 04:55:45;;;;;;;6.93;4.00;;;11.50;99.90;;;;;;5013611;28;20203;-67
2021/09/05 04:58:11;;;;;;;6.57;3.27;;;11.60;99.90;;;;;;5014513;28;20199;-67
2021/09/05 05:00:38;;;;;;;5.70;3.90;;;11.70;99.90;;;;;;5014826;28;20223;-67
2021/09/05 05:03:05;;;;;;;4.50;2.93;;;11.70;99.90;;;;;;5029044;28;20206;-66
2021/09/05 05:05:32;;;;;;;6.37;3.57;;;11.70;99.90;;;;;;5019394;28;20206;-67
2021/09/05 05:07:58;;;;;;;4.67;3.60;;;11.70;99.90;;;;;;5030012;28;20199;-66
2021/09/05 05:10:27;;;;;;;6.00;3.33;;;11.70;99.90;;;;;;5018329;28;20219;-68
2021/09/05 05:12:53;;;;;;;4.10;2.97;;;11.80;99.90;;;;;;5018330;28;20206;-67
2021/09/05 05:15:20;;;;;;;5.90;3.63;;;11.80;99.90;;;;;;5012863;28;20207;-67
2021/09/05 05:17:47;;;;;;;6.77;3.63;;;11.80;99.90;;;;;;5030118;28;20560;-66
2021/09/05 05:20:14;;;;;;;4.97;3.47;;;11.90;99.90;;;;;;5029476;28;20206;-68
2021/09/05 05:22:41;;;;;;;5.23;3.47;;;11.90;99.90;;;;;;5025361;28;20301;-67
2021/09/05 05:25:09;;;;;;;5.63;3.30;;;12.00;99.90;;;;;;5032977;28;20628;-68
2021/09/05 05:27:37;;;;;;;4.67;3.30;;;12.00;99.90;;;;;;5028689;28;20227;-67
2021/09/05 05:30:05;;;;;;;6.17;3.50;;;12.10;99.90;;;;;;5027476;28;20230;-67
2021/09/05 05:32:32;;;;;;;4.53;3.50;;;12.10;99.90;;;;;;5028571;28;20214;-67
2021/09/05 05:34:59;;;;;;;4.03;3.20;;;12.20;99.90;;;;;;5031902;28;20211;-68
2021/09/05 05:37:26;;;;;;;3.40;2.80;;;12.20;99.90;;;;;;5032130;28;20359;-68
2021/09/05 05:39:53;;;;;;;4.03;3.50;;;12.30;99.90;;;;;;5032689;28;20207;-68
2021/09/05 05:42:20;;;;;;;4.63;3.40;;;12.30;99.90;;;;;;5031743;28;20265;-68
2021/09/05 05:44:48;;;;;;;4.73;2.63;;;12.40;99.90;;;;;;5032847;28;20206;-67
2021/09/05 05:47:15;;;;;;;6.30;3.50;;;12.40;99.90;;;;;;5032536;28;20227;-67
2021/09/05 05:49:46;;;;;;;5.07;3.20;;;12.50;99.90;;;;;;5031151;28;20210;-67
2021/09/05 05:52:13;;;;;;;4.03;2.90;;;12.60;99.90;;;;;;5030924;28;20214;-67
2021/09/05 05:54:39;;;;;;;4.93;3.10;;;12.60;99.90;;;;;;5021965;28;20211;-68
2021/09/05 05:57:07;;;;;;;4.93;3.47;;;12.60;99.90;;;;;;5016666;28;20206;-70
2021/09/05 05:59:33;;;;;;;4.93;3.27;;;12.70;99.90;;;;;;5017208;28;20203;-67
2021/09/05 06:02:02;;;;;;;4.13;3.17;;;12.70;99.90;;;;;;5025835;28;20209;-68
2021/09/05 06:04:28;;;;;;;5.77;3.57;;;12.80;99.90;;;;;;5021344;28;20598;-67
2021/09/05 06:06:55;;;;;;;5.83;2.80;;;12.80;99.90;;;;;;5031245;28;20230;-65
2021/09/05 06:09:22;;;;;;;7.23;3.27;;;12.80;99.90;;;;;;5023984;28;20207;-66
2021/09/05 06:11:49;;;;;;;4.37;3.20;;;12.90;99.90;;;;;;5030158;28;20211;-65
2021/09/05 06:14:16;;;;;;;4.10;2.93;;;12.90;99.90;;;;;;5027540;28;20215;-67
2021/09/05 06:16:42;;;;;;;4.13;3.20;;;13.00;99.90;;;;;;5013637;28;20214;-66
2021/09/05 06:19:11;;;;;;;3.63;2.57;;;13.00;99.90;;;;;;5025150;28;20210;-66
2021/09/05 06:21:37;;;;;;;8.73;3.30;;;13.10;99.90;;;;;;5031277;28;20277;-66
2021/09/05 06:24:05;;;;;;;2.37;2.13;;;13.20;99.90;;;;;;5031491;28;20566;-68
2021/09/05 06:26:31;;;;;;;4.13;2.37;;;13.20;99.90;;;;;;5029395;28;20231;-68
2021/09/05 06:28:58;;;;;;;3.40;2.83;;;13.30;99.90;;;;;;5026169;28;20420;-68
2021/09/05 06:31:25;;;;;;;3.83;2.73;;;13.30;99.90;;;;;;5025680;28;20222;-68
2021/09/05 06:33:52;;;;;;;3.10;2.37;;;13.30;99.90;;;;;;5019860;28;20651;-67
2021/09/05 06:36:20;;;;;;;3.17;2.27;;;13.30;99.90;;;;;;5020591;28;20225;-69
2021/09/05 06:38:47;;;;;;;4.57;2.30;;;13.30;99.90;;;;;;5014319;28;20648;-68
2021/09/05 06:41:14;;;;;;;2.77;2.10;;;13.40;99.90;;;;;;5036260;28;20260;-69
2021/09/05 06:43:40;;;;;;;2.90;2.40;;;13.40;99.90;;;;;;5025242;28;20218;-67
2021/09/05 06:46:07;;;;;;;3.17;2.60;;;13.40;99.90;;;;;;5030683;28;20214;-68
2021/09/05 06:48:35;;;;;;;5.17;2.30;;;13.50;99.90;;;;;;5022243;28;20687;-69
2021/09/05 06:51:02;;;;;;;5.03;2.43;;;13.60;99.90;;;;;;5023147;28;20203;-67
2021/09/05 06:53:30;;;;;;;3.47;2.00;;;13.70;99.90;;;;;;5026757;28;20214;-67
2021/09/05 06:55:56;;;;;;;4.03;2.10;;;13.80;99.90;;;;;;5011464;28;20218;-67
2021/09/05 06:58:23;;;;;;;2.43;1.80;;;13.90;99.90;;;;;;5011536;28;20222;-68
2021/09/05 07:00:52;;;;;;;1.90;1.40;;;14.10;99.90;;;;;;5025510;28;20211;-68
2021/09/05 07:03:19;;;;;;;5.00;1.60;;;14.10;99.90;;;;;;5027960;28;20676;-68
2021/09/05 07:05:46;;;;;;;2.70;1.20;;;14.20;99.90;;;;;;5025858;28;20207;-69
2021/09/05 07:08:13;;;;;;;3.67;1.67;;;14.20;99.90;;;;;;5024242;28;20234;-70
2021/09/05 07:10:42;;;;;;;2.47;1.37;;;14.30;99.90;;;;;;5025541;28;20214;-68
2021/09/05 07:13:09;;;;;;;1.63;1.47;;;14.40;99.90;;;;;;5014970;28;20215;-67
2021/09/05 07:15:35;;;;;;;3.27;1.40;;;14.50;99.90;;;;;;5015095;28;20219;-66
2021/09/05 07:18:03;;;;;;;1.70;1.60;;;14.60;99.90;;;;;;5023995;28;20210;-66
2021/09/05 07:20:30;;;;;;;1.50;1.30;;;14.70;99.90;;;;;;5028492;28;20207;-68
2021/09/05 07:22:57;;;;;;;2.90;1.43;;;14.80;99.90;;;;;;5034267;28;20217;-69
2021/09/05 07:25:26;;;;;;;2.93;2.03;;;14.80;99.90;;;;;;5034330;28;20214;-68
2021/09/05 07:27:54;;;;;;;1.80;1.40;;;15.00;99.90;;;;;;5034221;28;20222;-68
2021/09/05 07:30:21;;;;;;;2.13;1.50;;;15.10;99.90;;;;;;5034602;28;20207;-67
2021/09/05 07:32:48;;;;;;;2.60;1.00;;;15.20;99.90;;;;;;5034341;28;20613;-65
2021/09/05 07:35:15;;;;;;;1.60;1.10;;;15.30;99.90;;;;;;5034170;28;20213;-66
2021/09/05 07:37:46;;;;;;;1.40;1.10;;;15.40;99.90;;;;;;5034007;28;20218;-68
2021/09/05 07:40:14;;;;;;;1.23;1.13;;;15.50;99.90;;;;;;5032686;28;20217;-68
2021/09/05 07:42:42;;;;;;;1.50;1.20;;;15.70;99.60;;;;;;5033304;28;20234;-68
2021/09/05 07:45:11;;;;;;;2.60;1.40;;;15.80;99.40;;;;;;5028375;28;20218;-68
2021/09/05 07:47:38;;;;;;;2.07;1.30;;;16.00;98.70;;;;;;5028117;28;20223;-68
2021/09/05 07:50:06;;;;;;;2.10;1.10;;;16.20;98.10;;;;;;5033693;28;20206;-70
2021/09/05 07:52:33;;;;;;;2.00;1.30;;;16.40;97.40;;;;;;5033255;28;20229;-67
2021/09/05 07:54:59;;;;;;;1.83;1.20;;;16.50;96.50;;;;;;5032879;28;20230;-66
2021/09/05 07:57:26;;;;;;;1.90;1.23;;;16.70;95.80;;;;;;5020209;28;20587;-66
2021/09/05 07:59:53;;;;;;;1.53;1.10;;;16.90;95.40;;;;;;5034210;28;20210;-67
2021/09/05 08:02:21;;;;;;;1.00;0.90;;;17.10;94.70;;;;;;5029102;28;20397;-67
2021/09/05 08:04:48;;;;;;;1.00;1.00;;;17.10;93.30;;;;;;5033176;28;20210;-69
2021/09/05 08:07:15;;;;;;;1.53;0.93;;;17.30;92.10;;;;;;5034136;28;20581;-69
2021/09/05 08:09:41;;;;;;;1.70;1.10;;;17.30;91.20;;;;;;5033683;28;20679;-67
2021/09/05 08:12:08;;;;;;;1.60;1.30;;;17.50;90.60;;;;;;5023858;28;20215;-68
2021/09/05 08:14:36;;;;;;;1.83;1.10;;;17.60;89.90;;;;;;5026225;28;20198;-67
2021/09/05 08:17:03;;;;;;;1.23;0.80;;;17.70;88.30;;;;;;5023754;28;20226;-67
2021/09/05 08:19:31;;;;;;;1.97;1.00;;;17.70;86.20;;;;;;5018702;28;20986;-67
2021/09/05 08:21:58;;;;;;;1.30;1.20;;;17.70;84.00;;;;;;5013738;28;20660;-67
2021/09/05 08:24:25;;;;;;;3.40;1.40;;;17.70;82.90;;;;;;5021348;28;20648;-68
2021/09/05 08:26:52;;;;;;;1.80;1.10;;;17.70;82.90;;;;;;5018445;28;20244;-66
2021/09/05 08:29:18;;;;;;;1.30;1.20;;;17.70;83.10;;;;;;5018989;28;20219;-68
2021/09/05 08:31:45;;;;;;;1.50;1.30;;;17.80;83.00;;;;;;5022083;28;20211;-68
2021/09/05 08:34:12;;;;;;;0.80;0.80;;;17.90;82.80;;;;;;5015579;28;20230;-69
2021/09/05 08:36:40;;;;;;;0.80;0.80;;;18.10;81.40;;;;;;5032494;28;20228;-70
2021/09/05 08:39:07;;;;;;;0.80;0.70;;;18.20;80.00;;;;;;5033001;28;20210;-69
2021/09/05 08:41:34;;;;;;;3.97;1.00;;;18.30;78.90;;;;;;5033002;28;20235;-69
2021/09/05 08:44:01;;;;;;;2.08;1.65;;;18.40;79.20;;;;;;5033874;28;20656;-69
2021/09/05 08:46:28;;;;;;;3.13;0.80;;;18.60;82.30;;;;;;5031704;28;20213;-69
2021/09/05 08:48:55;;;;;;;0.73;0.70;;;18.90;81.70;;;;;;5025433;28;20227;-68
2021/09/05 08:51:22;;;;;;;0.80;0.80;;;19.00;78.50;;;;;;5032838;28;20701;-69
2021/09/05 08:53:50;;;;;;;0.80;0.80;;;19.10;76.70;;;;;;5023663;28;20203;-67
2021/09/05 08:56:17;;;;;;;1.17;1.08;;;19.20;75.80;;;;;;5023237;28;20674;-67
2021/09/05 08:58:44;;;;;;;1.05;0.93;;;19.40;75.00;;;;;;5017049;28;20234;-68
2021/09/05 09:01:18;;;;;;;1.90;1.05;;;19.50;74.40;;;;;;5021798;28;20219;-68
2021/09/05 09:03:46;;;;;;;2.20;0.93;;;19.70;77.20;;;;;;5021935;28;20202;-68
2021/09/05 09:06:18;;;;;;;1.15;0.70;;;19.90;76.70;;;;;;5020862;28;20557;-68
2021/09/05 09:08:56;;;;;;;1.15;0.73;;;20.20;75.20;;;;;;5025379;28;20219;-68
2021/09/05 09:11:23;;;;;;;2.70;0.88;;;20.50;73.80;;;;;;5029612;28;20929;-68
2021/09/05 09:13:57;;;;;;;0.95;0.80;;;20.80;73.00;;;;;;5032427;28;20305;-68
2021/09/05 09:16:35;;;;;;;1.65;0.80;;;20.90;71.20;;;;;;5032787;28;20206;-69
2021/09/05 09:19:02;;;;;;;2.05;0.85;;;21.00;70.70;;;;;;5031790;28;20206;-68
2021/09/05 09:21:38;;;;;;;1.60;1.00;;;21.10;69.70;;;;;;5031119;28;20297;-68
2021/09/05 09:24:12;;;;;;;2.40;0.85;;;21.20;69.10;;;;;;5032433;28;20552;-67
2021/09/05 09:26:39;;;;;;;0.95;0.77;;;21.30;68.10;;;;;;5030954;28;20256;-68
2021/09/05 09:29:15;;;;;;;2.20;0.93;;;21.40;68.60;;;;;;5024518;28;20550;-68
2021/09/05 09:31:43;;;;;;;1.55;1.35;;;21.70;67.80;;;;;;5030852;28;20302;-66
2021/09/05 09:34:21;;;;;;;2.08;0.80;;;21.80;64.60;;;;;;5023345;28;20234;-67
2021/09/05 09:36:48;;;;;;;1.50;0.80;;;21.80;63.30;;;;;;5027200;28;20276;-66
2021/09/05 09:39:16;;;;;;;1.52;0.70;;;21.90;62.10;;;;;;5026769;28;20284;-67
2021/09/05 09:41:43;;;;;;;3.13;1.10;;;21.80;61.00;;;;;;5030137;28;20242;-67
2021/09/05 09:44:12;;;;;;;10.07;2.92;;;21.70;59.90;;;;;;5030801;28;20211;-68
2021/09/05 09:46:40;;;;;;;6.43;1.83;;;21.70;61.50;;;;;;5031327;28;20236;-67
2021/09/05 09:49:08;;;;;;;3.25;1.33;;;21.70;63.10;;;;;;5031493;28;20226;-68
2021/09/05 09:51:37;;;;;;;2.20;1.42;;;21.90;62.50;;;;;;5031308;28;20214;-66
2021/09/05 09:54:04;;;;;;;2.95;1.05;;;21.90;62.50;;;;;;5031483;28;20237;-67
2021/09/05 09:56:33;;;;;;;2.33;1.02;;;22.00;61.30;;;;;;5031788;28;20659;-66
2021/09/05 09:59:02;;;;;;;1.67;0.60;;;22.00;63.10;;;;;;5029469;28;20676;-68
2021/09/05 10:01:30;;;;;;;1.65;0.90;;;22.30;61.90;;;;;;5032164;28;20214;-67
2021/09/05 10:03:58;;;;;;;0.63;0.63;;;22.60;61.40;;;;;;5031196;28;20314;-68
2021/09/05 10:06:27;;;;;;;1.65;0.80;;;22.80;59.70;;;;;;5026955;28;20206;-68
2021/09/05 10:08:56;;;;;;;1.10;1.00;;;22.90;59.60;;;;;;5018463;28;20227;-68
2021/09/05 10:11:24;;;;;;;1.20;0.93;;;23.10;59.40;;;;;;5014969;28;20203;-67
2021/09/05 10:13:53;;;;;;;2.08;1.20;;;23.30;58.90;;;;;;5020625;28;20219;-67
2021/09/05 10:16:20;;;;;;;1.83;1.38;;;23.40;57.70;;;;;;5025254;28;20214;-68
2021/09/05 10:18:49;;;;;;;1.38;0.70;;;23.40;57.50;;;;;;5031288;28;20198;-69
2021/09/05 10:21:18;;;;;;;0.88;0.80;;;23.40;57.50;;;;;;5033581;28;20214;-69
2021/09/05 10:23:47;;;;;;;1.13;0.80;;;23.40;56.50;;;;;;5026739;28;20652;-67
2021/09/05 10:26:15;;;;;;;1.00;0.90;;;23.50;56.20;;;;;;5030365;28;20207;-68
2021/09/05 10:28:43;;;;;;;0.88;0.63;;;23.60;55.50;;;;;;5031761;28;20223;-68
2021/09/05 10:31:21;;;;;;;2.63;0.80;;;23.90;56.10;;;;;;5030688;28;20198;-68
2021/09/05 10:33:48;;;;;;;1.08;0.77;;;24.10;53.70;;;;;;5031258;28;20203;-68
2021/09/05 10:36:18;;;;;;;0.75;0.63;;;23.70;53.20;;;;;;5030509;28;20231;-70
2021/09/05 10:38:46;;;;;;;0.80;0.68;;;23.50;54.10;;;;;;5032023;28;20658;-67
2021/09/05 10:41:15;;;;;;;1.48;0.80;;;23.50;53.60;;;;;;5031061;28;20234;-68
2021/09/05 10:44:15;;;;;;;0.40;0.40;;;23.80;53.00;;;;;;5031056;28;20214;-69
2021/09/05 10:46:47;;;;;;;1.00;0.73;;;24.20;52.30;;;;;;5029520;28;20656;-68
2021/09/05 10:49:14;;;;;;;0.73;0.57;;;24.50;52.80;;;;;;5031072;28;20639;-67
2021/09/05 10:51:46;;;;;;;0.65;0.65;;;24.80;52.00;;;;;;5030148;28;20214;-70
2021/09/05 10:54:22;;;;;;;1.65;0.90;;;24.90;51.30;;;;;;5031122;28;20198;-69
2021/09/05 10:56:49;;;;;;;0.85;0.63;;;24.60;51.00;;;;;;5031086;28;20245;-70
2021/09/05 10:59:19;;;;;;;0.80;0.80;;;24.00;51.50;;;;;;5014831;28;20639;-69
2021/09/05 11:02:00;;;;;;;0.90;0.77;;;23.30;52.70;;;;;;5018097;28;20310;-68
2021/09/05 11:04:29;;;;;;;1.05;0.90;;;22.70;53.50;;;;;;5020241;28;20211;-68
2021/09/05 11:07:06;;;;;;;2.15;0.70;;;22.50;55.40;;;;;;5021336;28;20202;-67
2021/09/05 11:09:44;;;;;;;1.27;0.88;;;22.40;55.20;;;;;;5021290;28;20218;-67
2021/09/05 11:12:13;;;;;;;1.27;0.98;;;22.50;55.20;;;;;;5018402;28;20209;-67
2021/09/05 11:14:56;;;;;;;0.95;0.90;;;22.80;54.10;;;;;;5028231;28;20273;-68
2021/09/05 11:17:26;;;;;;;0.60;0.60;;;23.10;52.60;;;;;;5029486;28;20210;-67
2021/09/05 11:19:55;;;;;;;0.60;0.57;;;23.20;51.50;;;;;;5031002;28;20547;-67
2021/09/05 11:22:24;;;;;;;1.33;0.63;;;23.60;50.50;;;;;;5026940;28;20226;-66
2021/09/05 11:25:07;;;;;;;0.75;0.70;;;23.90;50.20;;;;;;5022883;28;20203;-67
2021/09/05 11:27:35;;;;;;;1.33;0.80;;;24.20;49.10;;;;;;5031686;28;20207;-67
2021/09/05 11:30:02;;;;;;;0.73;0.65;;;24.30;48.40;;;;;;5029491;28;20211;-68
2021/09/05 11:32:31;;;;;;;0.70;0.70;;;24.50;47.40;;;;;;5031207;28;20217;-67
2021/09/05 11:34:58;;;;;;;1.35;0.88;;;24.40;47.60;;;;;;5017300;28;20218;-67
2021/09/05 11:37:29;;;;;;;1.92;0.60;;;24.30;47.40;;;;;;5019962;28;20234;-69
2021/09/05 11:39:56;;;;;;;1.98;0.80;;;24.30;47.20;;;;;;5020310;28;20753;-67
2021/09/05 11:42:23;;;;;;;0.77;0.77;;;24.40;46.50;;;;;;5022152;28;20262;-69
2021/09/05 11:44:50;;;;;;;0.70;0.60;;;24.40;46.80;;;;;;5027601;28;20581;-69
2021/09/05 11:47:18;;;;;;;1.42;0.70;;;24.70;46.90;;;;;;5021043;28;20233;-69
2021/09/05 11:49:51;;;;;;;0.90;0.60;;;25.10;45.90;;;;;;5029380;28;20284;-69
2021/09/05 11:52:21;;;;;;;0.90;0.60;;;25.30;45.40;;;;;;5027569;28;20203;-67
2021/09/05 11:54:49;;;;;;;1.02;0.88;;;25.10;45.80;;;;;;5025462;28;20215;-69
2021/09/05 11:57:16;;;;;;;2.22;1.10;;;25.20;45.20;;;;;;5015893;28;20207;-69
2021/09/05 11:59:43;;;;;;;0.40;0.40;;;25.30;44.90;;;;;;5020165;28;20675;-68
2021/09/05 12:02:10;;;;;;;0.65;0.65;;;25.00;44.70;;;;;;5028265;28;20590;-69
2021/09/05 12:04:36;;;;;;;0.60;0.60;;;24.70;45.20;;;;;;5033102;28;20644;-68
2021/09/05 12:07:05;;;;;;;0.70;0.60;;;24.50;46.30;;;;;;5033349;28;20210;-67
2021/09/05 12:09:33;;;;;;;0.70;0.70;;;24.30;46.20;;;;;;5030303;28;20316;-68
2021/09/05 12:12:02;;;;;;;0.98;0.70;;;24.20;47.10;;;;;;5022406;28;20210;-68
2021/09/05 12:14:31;;;;;;;0.73;0.73;;;24.30;48.00;;;;;;5017794;28;20233;-69
2021/09/05 12:16:58;;;;;;;0.95;0.63;;;24.40;47.60;;;;;;5017940;28;20207;-68
2021/09/05 12:19:25;;;;;;;0.85;0.85;;;24.70;47.70;;;;;;5023665;28;20199;-68
2021/09/05 12:21:58;;;;;;;0.75;0.47;;;25.00;45.50;;;;;;5017556;28;20203;-67
2021/09/05 12:24:26;;;;;;;0.57;0.50;;;25.00;44.60;;;;;;5016997;28;20257;-68
2021/09/05 12:26:52;;;;;;;0.75;0.50;;;24.80;44.00;;;;;;5024652;28;20298;-69
2021/09/05 12:29:37;;;;;;;1.63;0.70;;;24.60;44.30;;;;;;5022984;28;20222;-68
2021/09/05 12:32:05;;;;;;;0.60;0.60;;;24.60;44.90;;;;;;5014609;28;20206;-67
2021/09/05 12:34:42;;;;;;;2.03;1.02;;;25.00;44.80;;;;;;5019594;28;20211;-68
2021/09/05 12:37:17;;;;;;;1.85;1.02;;;25.20;43.40;;;;;;5021977;28;20266;-67
2021/09/05 12:39:47;;;;;;;1.67;1.05;;;25.10;44.00;;;;;;5023250;28;20657;-68
2021/09/05 12:42:16;;;;;;;2.42;1.20;;;25.00;45.60;;;;;;5019412;28;20238;-68
2021/09/05 12:44:45;;;;;;;1.05;0.82;;;24.90;46.90;;;;;;5033211;28;20294;-69
2021/09/05 12:47:19;;;;;;;0.75;0.70;;;24.90;46.90;;;;;;5023421;28;20219;-69
2021/09/05 12:49:46;;;;;;;0.73;0.73;;;24.80;46.90;;;;;;5033918;28;20839;-69